sensor_id;sensor_type;location;lat;lon;timestamp;P1;durP1;ratioP1;P2;durP2;ratioP2
72156;SDS011;60035;52.122;5.406;2022-08-19T00:01:28;8.60;;;3.47;;
72156;SDS011;60035;52.122;5.406;2022-08-19T00:03:57;6.55;;;3.83;;
72156;SDS011;60035;52.122;5.406;2022-08-19T00:06:24;7.22;;;3.10;;
72156;SDS011;60035;52.122;5.406;2022-08-19T00:08:52;6.72;;;2.97;;
72156;SDS011;60035;52.122;5.406;2022-08-19T00:11:18;7.20;;;3.42;;
72156;SDS011;60035;52.122;5.406;2022-08-19T00:13:50;6.28;;;3.55;;
72156;SDS011;60035;52.122;5.406;2022-08-19T00:16:17;7.50;;;3.38;;
72156;SDS011;60035;52.122;5.406;2022-08-19T00:18:52;7.72;;;3.40;;
72156;SDS011;60035;52.122;5.406;2022-08-19T00:21:21;6.10;;;3.03;;
72156;SDS011;60035;52.122;5.406;2022-08-19T00:23:53;7.05;;;3.53;;
72156;SDS011;60035;52.122;5.406;2022-08-19T00:26:20;8.40;;;3.30;;
72156;SDS011;60035;52.122;5.406;2022-08-19T00:28:47;7.50;;;3.33;;
72156;SDS011;60035;52.122;5.406;2022-08-19T00:31:13;8.23;;;3.42;;
72156;SDS011;60035;52.122;5.406;2022-08-19T00:33:40;7.22;;;2.92;;
72156;SDS011;60035;52.122;5.406;2022-08-19T00:36:07;6.60;;;3.17;;
72156;SDS011;60035;52.122;5.406;2022-08-19T00:38:35;5.90;;;2.88;;
72156;SDS011;60035;52.122;5.406;2022-08-19T00:41:06;7.82;;;3.15;;
72156;SDS011;60035;52.122;5.406;2022-08-19T00:43:33;8.82;;;2.83;;
72156;SDS011;60035;52.122;5.406;2022-08-19T00:46:00;8.90;;;3.63;;
72156;SDS011;60035;52.122;5.406;2022-08-19T00:48:31;6.38;;;3.00;;
72156;SDS011;60035;52.122;5.406;2022-08-19T00:50:59;7.70;;;3.60;;
72156;SDS011;60035;52.122;5.406;2022-08-19T00:53:28;5.85;;;2.83;;
72156;SDS011;60035;52.122;5.406;2022-08-19T00:55:58;6.20;;;2.90;;
72156;SDS011;60035;52.122;5.406;2022-08-19T00:58:29;8.85;;;3.08;;
72156;SDS011;60035;52.122;5.406;2022-08-19T01:00:58;8.60;;;3.30;;
72156;SDS011;60035;52.122;5.406;2022-08-19T01:03:26;6.00;;;2.97;;
72156;SDS011;60035;52.122;5.406;2022-08-19T01:05:53;7.78;;;3.10;;
72156;SDS011;60035;52.122;5.406;2022-08-19T01:08:24;6.10;;;2.70;;
72156;SDS011;60035;52.122;5.406;2022-08-19T01:10:52;5.82;;;2.72;;
72156;SDS011;60035;52.122;5.406;2022-08-19T01:13:23;6.82;;;3.00;;
72156;SDS011;60035;52.122;5.406;2022-08-19T01:15:56;6.55;;;2.97;;
72156;SDS011;60035;52.122;5.406;2022-08-19T01:18:28;5.93;;;2.72;;
72156;SDS011;60035;52.122;5.406;2022-08-19T01:20:58;6.85;;;3.20;;
72156;SDS011;60035;52.122;5.406;2022-08-19T01:23:29;6.72;;;3.08;;
72156;SDS011;60035;52.122;5.406;2022-08-19T01:26:16;6.93;;;3.20;;
72156;SDS011;60035;52.122;5.406;2022-08-19T01:28:49;7.43;;;3.15;;
72156;SDS011;60035;52.122;5.406;2022-08-19T01:31:20;7.82;;;3.67;;
72156;SDS011;60035;52.122;5.406;2022-08-19T01:33:54;7.60;;;3.65;;
72156;SDS011;60035;52.122;5.406;2022-08-19T01:36:23;8.10;;;3.40;;
72156;SDS011;60035;52.122;5.406;2022-08-19T01:38:59;10.35;;;4.05;;
72156;SDS011;60035;52.122;5.406;2022-08-19T01:41:27;9.15;;;3.90;;
72156;SDS011;60035;52.122;5.406;2022-08-19T01:43:54;7.03;;;3.25;;
72156;SDS011;60035;52.122;5.406;2022-08-19T01:49:10;7.93;;;3.60;;
72156;SDS011;60035;52.122;5.406;2022-08-19T01:51:36;7.78;;;3.50;;
72156;SDS011;60035;52.122;5.406;2022-08-19T01:54:05;7.00;;;3.17;;
72156;SDS011;60035;52.122;5.406;2022-08-19T01:56:32;7.75;;;2.95;;
72156;SDS011;60035;52.122;5.406;2022-08-19T01:59:00;7.75;;;3.35;;
72156;SDS011;60035;52.122;5.406;2022-08-19T02:01:29;7.03;;;3.47;;
72156;SDS011;60035;52.122;5.406;2022-08-19T02:03:58;8.85;;;3.40;;
72156;SDS011;60035;52.122;5.406;2022-08-19T02:06:27;9.48;;;3.88;;
72156;SDS011;60035;52.122;5.406;2022-08-19T02:08:54;8.63;;;3.45;;
72156;SDS011;60035;52.122;5.406;2022-08-19T02:11:23;9.07;;;3.55;;
72156;SDS011;60035;52.122;5.406;2022-08-19T02:13:55;9.43;;;3.63;;
72156;SDS011;60035;52.122;5.406;2022-08-19T02:16:21;8.48;;;3.65;;
72156;SDS011;60035;52.122;5.406;2022-08-19T02:18:48;8.68;;;3.60;;
72156;SDS011;60035;52.122;5.406;2022-08-19T02:21:15;11.07;;;4.65;;
72156;SDS011;60035;52.122;5.406;2022-08-19T02:23:42;10.40;;;4.75;;
72156;SDS011;60035;52.122;5.406;2022-08-19T02:26:09;10.70;;;3.63;;
72156;SDS011;60035;52.122;5.406;2022-08-19T02:28:36;9.57;;;3.78;;
72156;SDS011;60035;52.122;5.406;2022-08-19T02:31:03;8.43;;;3.63;;
72156;SDS011;60035;52.122;5.406;2022-08-19T02:33:29;10.60;;;3.92;;
72156;SDS011;60035;52.122;5.406;2022-08-19T02:35:56;10.90;;;4.72;;
72156;SDS011;60035;52.122;5.406;2022-08-19T02:38:22;8.93;;;4.00;;
72156;SDS011;60035;52.122;5.406;2022-08-19T02:40:56;8.68;;;3.70;;
72156;SDS011;60035;52.122;5.406;2022-08-19T02:43:26;13.63;;;5.10;;
72156;SDS011;60035;52.122;5.406;2022-08-19T02:45:59;12.70;;;5.18;;
72156;SDS011;60035;52.122;5.406;2022-08-19T02:48:26;12.23;;;5.13;;
72156;SDS011;60035;52.122;5.406;2022-08-19T02:50:53;14.23;;;5.78;;
72156;SDS011;60035;52.122;5.406;2022-08-19T02:53:23;15.98;;;7.57;;
72156;SDS011;60035;52.122;5.406;2022-08-19T02:55:52;17.40;;;8.10;;
72156;SDS011;60035;52.122;5.406;2022-08-19T02:58:20;16.92;;;7.43;;
72156;SDS011;60035;52.122;5.406;2022-08-19T03:00:48;15.82;;;7.25;;
72156;SDS011;60035;52.122;5.406;2022-08-19T03:03:20;14.85;;;6.70;;
72156;SDS011;60035;52.122;5.406;2022-08-19T03:05:47;14.95;;;7.00;;
72156;SDS011;60035;52.122;5.406;2022-08-19T03:08:22;15.43;;;6.55;;
72156;SDS011;60035;52.122;5.406;2022-08-19T03:10:50;18.13;;;6.85;;
72156;SDS011;60035;52.122;5.406;2022-08-19T03:13:17;13.32;;;6.43;;
72156;SDS011;60035;52.122;5.406;2022-08-19T03:15:45;14.40;;;6.15;;
72156;SDS011;60035;52.122;5.406;2022-08-19T03:18:12;13.60;;;5.80;;
72156;SDS011;60035;52.122;5.406;2022-08-19T03:20:44;14.77;;;5.60;;
72156;SDS011;60035;52.122;5.406;2022-08-19T03:23:13;14.32;;;5.88;;
72156;SDS011;60035;52.122;5.406;2022-08-19T03:25:42;12.00;;;5.43;;
72156;SDS011;60035;52.122;5.406;2022-08-19T03:28:11;13.52;;;6.25;;
72156;SDS011;60035;52.122;5.406;2022-08-19T03:30:39;12.23;;;5.75;;
72156;SDS011;60035;52.122;5.406;2022-08-19T03:33:09;13.00;;;6.07;;
72156;SDS011;60035;52.122;5.406;2022-08-19T03:36:07;14.30;;;5.78;;
72156;SDS011;60035;52.122;5.406;2022-08-19T03:38:36;15.00;;;6.70;;
72156;SDS011;60035;52.122;5.406;2022-08-19T03:41:06;12.65;;;5.78;;
72156;SDS011;60035;52.122;5.406;2022-08-19T03:43:38;12.35;;;5.70;;
72156;SDS011;60035;52.122;5.406;2022-08-19T03:46:10;12.43;;;5.70;;
72156;SDS011;60035;52.122;5.406;2022-08-19T03:48:38;11.98;;;5.72;;
72156;SDS011;60035;52.122;5.406;2022-08-19T03:51:07;12.80;;;5.35;;
72156;SDS011;60035;52.122;5.406;2022-08-19T03:53:34;14.00;;;5.68;;
72156;SDS011;60035;52.122;5.406;2022-08-19T03:56:01;12.68;;;5.82;;
72156;SDS011;60035;52.122;5.406;2022-08-19T03:58:28;11.88;;;5.50;;
72156;SDS011;60035;52.122;5.406;2022-08-19T04:00:56;12.25;;;5.78;;
72156;SDS011;60035;52.122;5.406;2022-08-19T04:03:25;11.23;;;5.55;;
72156;SDS011;60035;52.122;5.406;2022-08-19T04:05:53;10.93;;;4.88;;
72156;SDS011;60035;52.122;5.406;2022-08-19T04:08:19;13.38;;;5.25;;
72156;SDS011;60035;52.122;5.406;2022-08-19T04:10:48;11.20;;;5.22;;
72156;SDS011;60035;52.122;5.406;2022-08-19T04:13:17;12.25;;;5.53;;
72156;SDS011;60035;52.122;5.406;2022-08-19T04:15:45;11.82;;;5.00;;
72156;SDS011;60035;52.122;5.406;2022-08-19T04:18:12;12.15;;;5.70;;
72156;SDS011;60035;52.122;5.406;2022-08-19T04:20:43;10.60;;;5.18;;
72156;SDS011;60035;52.122;5.406;2022-08-19T04:23:13;12.15;;;5.38;;
72156;SDS011;60035;52.122;5.406;2022-08-19T04:25:41;10.70;;;4.78;;
72156;SDS011;60035;52.122;5.406;2022-08-19T04:28:10;10.27;;;4.70;;
72156;SDS011;60035;52.122;5.406;2022-08-19T04:30:41;11.27;;;5.05;;
72156;SDS011;60035;52.122;5.406;2022-08-19T04:33:12;11.63;;;5.55;;
72156;SDS011;60035;52.122;5.406;2022-08-19T04:35:43;14.68;;;5.97;;
72156;SDS011;60035;52.122;5.406;2022-08-19T04:38:14;15.07;;;6.15;;
72156;SDS011;60035;52.122;5.406;2022-08-19T04:40:46;14.00;;;6.10;;
72156;SDS011;60035;52.122;5.406;2022-08-19T04:43:33;16.83;;;6.07;;
72156;SDS011;60035;52.122;5.406;2022-08-19T04:46:05;12.00;;;5.25;;
72156;SDS011;60035;52.122;5.406;2022-08-19T04:48:34;16.00;;;5.80;;
72156;SDS011;60035;52.122;5.406;2022-08-19T04:51:09;14.85;;;6.07;;
72156;SDS011;60035;52.122;5.406;2022-08-19T04:53:40;19.63;;;5.82;;
72156;SDS011;60035;52.122;5.406;2022-08-19T04:56:13;15.45;;;5.97;;
72156;SDS011;60035;52.122;5.406;2022-08-19T04:58:43;14.02;;;6.53;;
72156;SDS011;60035;52.122;5.406;2022-08-19T05:01:14;15.45;;;6.55;;
72156;SDS011;60035;52.122;5.406;2022-08-19T05:03:44;15.20;;;5.70;;
72156;SDS011;60035;52.122;5.406;2022-08-19T05:06:11;14.95;;;6.63;;
72156;SDS011;60035;52.122;5.406;2022-08-19T05:08:40;13.88;;;7.10;;
72156;SDS011;60035;52.122;5.406;2022-08-19T05:11:11;13.55;;;6.13;;
72156;SDS011;60035;52.122;5.406;2022-08-19T05:13:40;15.07;;;6.53;;
72156;SDS011;60035;52.122;5.406;2022-08-19T05:16:07;12.68;;;5.75;;
72156;SDS011;60035;52.122;5.406;2022-08-19T05:18:33;11.48;;;5.95;;
72156;SDS011;60035;52.122;5.406;2022-08-19T05:21:19;12.43;;;5.90;;
72156;SDS011;60035;52.122;5.406;2022-08-19T05:24:05;11.25;;;5.55;;
72156;SDS011;60035;52.122;5.406;2022-08-19T05:26:36;11.13;;;5.88;;
72156;SDS011;60035;52.122;5.406;2022-08-19T05:29:03;12.23;;;5.47;;
72156;SDS011;60035;52.122;5.406;2022-08-19T05:31:31;12.30;;;5.32;;
72156;SDS011;60035;52.122;5.406;2022-08-19T05:33:58;11.75;;;5.93;;
72156;SDS011;60035;52.122;5.406;2022-08-19T05:36:26;14.80;;;6.25;;
72156;SDS011;60035;52.122;5.406;2022-08-19T05:38:54;13.38;;;6.63;;
72156;SDS011;60035;52.122;5.406;2022-08-19T05:41:21;12.82;;;6.43;;
72156;SDS011;60035;52.122;5.406;2022-08-19T05:43:52;12.48;;;6.13;;
72156;SDS011;60035;52.122;5.406;2022-08-19T05:46:19;16.08;;;7.18;;
72156;SDS011;60035;52.122;5.406;2022-08-19T05:48:53;13.90;;;6.30;;
72156;SDS011;60035;52.122;5.406;2022-08-19T05:51:23;15.68;;;6.95;;
72156;SDS011;60035;52.122;5.406;2022-08-19T05:53:54;15.50;;;8.27;;
72156;SDS011;60035;52.122;5.406;2022-08-19T05:56:21;14.60;;;7.18;;
72156;SDS011;60035;52.122;5.406;2022-08-19T05:58:47;14.98;;;7.55;;
72156;SDS011;60035;52.122;5.406;2022-08-19T06:01:15;15.55;;;7.78;;
72156;SDS011;60035;52.122;5.406;2022-08-19T06:03:44;18.52;;;8.55;;
72156;SDS011;60035;52.122;5.406;2022-08-19T06:06:11;19.88;;;9.52;;
72156;SDS011;60035;52.122;5.406;2022-08-19T06:08:39;18.52;;;8.63;;
72156;SDS011;60035;52.122;5.406;2022-08-19T06:11:13;20.38;;;9.63;;
72156;SDS011;60035;52.122;5.406;2022-08-19T06:13:46;23.23;;;10.75;;
72156;SDS011;60035;52.122;5.406;2022-08-19T06:16:16;20.55;;;9.98;;
72156;SDS011;60035;52.122;5.406;2022-08-19T06:18:48;20.88;;;10.60;;
72156;SDS011;60035;52.122;5.406;2022-08-19T06:21:20;27.70;;;12.05;;
72156;SDS011;60035;52.122;5.406;2022-08-19T06:23:48;25.90;;;11.70;;
72156;SDS011;60035;52.122;5.406;2022-08-19T06:26:17;26.60;;;12.95;;
72156;SDS011;60035;52.122;5.406;2022-08-19T06:28:45;29.20;;;13.95;;
72156;SDS011;60035;52.122;5.406;2022-08-19T06:31:17;34.40;;;15.57;;
72156;SDS011;60035;52.122;5.406;2022-08-19T06:33:47;32.22;;;15.25;;
72156;SDS011;60035;52.122;5.406;2022-08-19T06:36:16;35.85;;;17.02;;
72156;SDS011;60035;52.122;5.406;2022-08-19T06:38:50;34.70;;;15.93;;
72156;SDS011;60035;52.122;5.406;2022-08-19T06:41:16;41.60;;;18.35;;
72156;SDS011;60035;52.122;5.406;2022-08-19T06:43:43;39.28;;;17.63;;
72156;SDS011;60035;52.122;5.406;2022-08-19T06:46:13;40.83;;;18.50;;
72156;SDS011;60035;52.122;5.406;2022-08-19T06:48:41;39.88;;;18.90;;
72156;SDS011;60035;52.122;5.406;2022-08-19T06:51:11;41.70;;;19.25;;
72156;SDS011;60035;52.122;5.406;2022-08-19T06:53:47;45.83;;;18.80;;
72156;SDS011;60035;52.122;5.406;2022-08-19T06:56:22;45.08;;;18.67;;
72156;SDS011;60035;52.122;5.406;2022-08-19T06:59:08;42.90;;;18.65;;
72156;SDS011;60035;52.122;5.406;2022-08-19T07:01:42;45.25;;;19.25;;
72156;SDS011;60035;52.122;5.406;2022-08-19T07:04:14;46.55;;;19.20;;
72156;SDS011;60035;52.122;5.406;2022-08-19T07:06:44;46.05;;;18.77;;
72156;SDS011;60035;52.122;5.406;2022-08-19T07:09:20;54.05;;;20.45;;
72156;SDS011;60035;52.122;5.406;2022-08-19T07:11:47;49.10;;;19.85;;
72156;SDS011;60035;52.122;5.406;2022-08-19T07:14:16;51.97;;;20.38;;
72156;SDS011;60035;52.122;5.406;2022-08-19T07:16:46;60.53;;;23.52;;
72156;SDS011;60035;52.122;5.406;2022-08-19T07:19:15;56.53;;;23.35;;
72156;SDS011;60035;52.122;5.406;2022-08-19T07:21:44;54.70;;;22.13;;
72156;SDS011;60035;52.122;5.406;2022-08-19T07:24:12;55.45;;;23.63;;
72156;SDS011;60035;52.122;5.406;2022-08-19T07:26:40;56.75;;;23.63;;
72156;SDS011;60035;52.122;5.406;2022-08-19T07:29:08;53.58;;;23.25;;
72156;SDS011;60035;52.122;5.406;2022-08-19T07:31:36;47.05;;;22.50;;
72156;SDS011;60035;52.122;5.406;2022-08-19T07:34:04;53.05;;;22.33;;
72156;SDS011;60035;52.122;5.406;2022-08-19T07:36:38;48.30;;;21.73;;
72156;SDS011;60035;52.122;5.406;2022-08-19T07:39:08;45.55;;;21.75;;
72156;SDS011;60035;52.122;5.406;2022-08-19T07:41:40;53.42;;;23.38;;
72156;SDS011;60035;52.122;5.406;2022-08-19T07:44:07;54.15;;;24.85;;
72156;SDS011;60035;52.122;5.406;2022-08-19T07:46:36;51.28;;;23.35;;
72156;SDS011;60035;52.122;5.406;2022-08-19T07:49:05;48.53;;;23.17;;
72156;SDS011;60035;52.122;5.406;2022-08-19T07:51:33;52.63;;;24.75;;
72156;SDS011;60035;52.122;5.406;2022-08-19T07:54:02;56.75;;;25.08;;
72156;SDS011;60035;52.122;5.406;2022-08-19T07:56:29;46.88;;;21.98;;
72156;SDS011;60035;52.122;5.406;2022-08-19T07:58:56;43.05;;;21.60;;
72156;SDS011;60035;52.122;5.406;2022-08-19T08:01:23;44.53;;;21.02;;
72156;SDS011;60035;52.122;5.406;2022-08-19T08:03:54;40.85;;;19.80;;
72156;SDS011;60035;52.122;5.406;2022-08-19T08:06:52;42.03;;;19.60;;
72156;SDS011;60035;52.122;5.406;2022-08-19T08:09:39;38.22;;;18.45;;
72156;SDS011;60035;52.122;5.406;2022-08-19T08:12:29;35.00;;;18.00;;
72156;SDS011;60035;52.122;5.406;2022-08-19T08:15:01;35.33;;;17.40;;
72156;SDS011;60035;52.122;5.406;2022-08-19T08:17:40;36.38;;;18.63;;
72156;SDS011;60035;52.122;5.406;2022-08-19T08:20:17;33.63;;;17.90;;
72156;SDS011;60035;52.122;5.406;2022-08-19T08:22:45;34.53;;;17.63;;
72156;SDS011;60035;52.122;5.406;2022-08-19T08:25:48;34.70;;;17.27;;
72156;SDS011;60035;52.122;5.406;2022-08-19T08:28:15;36.53;;;18.00;;
72156;SDS011;60035;52.122;5.406;2022-08-19T08:30:43;31.15;;;17.08;;
72156;SDS011;60035;52.122;5.406;2022-08-19T08:33:10;32.22;;;17.20;;
72156;SDS011;60035;52.122;5.406;2022-08-19T08:35:38;32.33;;;16.33;;
72156;SDS011;60035;52.122;5.406;2022-08-19T08:38:08;31.13;;;15.35;;
72156;SDS011;60035;52.122;5.406;2022-08-19T08:40:39;29.98;;;14.30;;
72156;SDS011;60035;52.122;5.406;2022-08-19T08:43:29;28.83;;;14.65;;
72156;SDS011;60035;52.122;5.406;2022-08-19T08:48:57;28.40;;;13.45;;
72156;SDS011;60035;52.122;5.406;2022-08-19T08:51:34;24.63;;;13.05;;
72156;SDS011;60035;52.122;5.406;2022-08-19T08:54:10;30.67;;;14.57;;
72156;SDS011;60035;52.122;5.406;2022-08-19T08:56:40;25.73;;;13.30;;
72156;SDS011;60035;52.122;5.406;2022-08-19T08:59:42;29.33;;;14.02;;
72156;SDS011;60035;52.122;5.406;2022-08-19T09:02:05;25.83;;;13.65;;
72156;SDS011;60035;52.122;5.406;2022-08-19T09:04:31;24.58;;;13.48;;
72156;SDS011;60035;52.122;5.406;2022-08-19T09:10:08;24.52;;;13.20;;
72156;SDS011;60035;52.122;5.406;2022-08-19T09:12:48;27.63;;;14.00;;
72156;SDS011;60035;52.122;5.406;2022-08-19T09:17:59;23.88;;;12.88;;
72156;SDS011;60035;52.122;5.406;2022-08-19T09:20:27;24.60;;;12.32;;
72156;SDS011;60035;52.122;5.406;2022-08-19T09:22:54;24.90;;;13.43;;
72156;SDS011;60035;52.122;5.406;2022-08-19T09:25:23;26.98;;;13.88;;
72156;SDS011;60035;52.122;5.406;2022-08-19T09:27:52;22.08;;;12.27;;
72156;SDS011;60035;52.122;5.406;2022-08-19T09:30:28;23.58;;;13.30;;
72156;SDS011;60035;52.122;5.406;2022-08-19T09:32:57;24.55;;;13.38;;
72156;SDS011;60035;52.122;5.406;2022-08-19T09:35:24;26.15;;;12.80;;
72156;SDS011;60035;52.122;5.406;2022-08-19T09:37:53;23.92;;;12.57;;
72156;SDS011;60035;52.122;5.406;2022-08-19T09:40:25;25.20;;;11.43;;
72156;SDS011;60035;52.122;5.406;2022-08-19T09:42:55;24.17;;;12.10;;
72156;SDS011;60035;52.122;5.406;2022-08-19T09:45:23;19.80;;;10.55;;
72156;SDS011;60035;52.122;5.406;2022-08-19T09:47:50;20.15;;;11.55;;
72156;SDS011;60035;52.122;5.406;2022-08-19T09:50:20;18.48;;;10.55;;
72156;SDS011;60035;52.122;5.406;2022-08-19T09:52:48;20.55;;;10.02;;
72156;SDS011;60035;52.122;5.406;2022-08-19T09:55:22;21.25;;;9.75;;
72156;SDS011;60035;52.122;5.406;2022-08-19T09:57:57;20.40;;;10.20;;
72156;SDS011;60035;52.122;5.406;2022-08-19T10:00:23;20.92;;;9.20;;
72156;SDS011;60035;52.122;5.406;2022-08-19T10:02:53;17.88;;;8.90;;
72156;SDS011;60035;52.122;5.406;2022-08-19T10:05:19;20.52;;;9.88;;
72156;SDS011;60035;52.122;5.406;2022-08-19T10:08:07;18.30;;;10.40;;
72156;SDS011;60035;52.122;5.406;2022-08-19T10:10:39;16.10;;;9.90;;
72156;SDS011;60035;52.122;5.406;2022-08-19T10:13:12;17.42;;;10.07;;
72156;SDS011;60035;52.122;5.406;2022-08-19T10:15:40;20.55;;;10.35;;
72156;SDS011;60035;52.122;5.406;2022-08-19T10:18:13;18.23;;;10.23;;
72156;SDS011;60035;52.122;5.406;2022-08-19T10:20:39;18.73;;;9.70;;
72156;SDS011;60035;52.122;5.406;2022-08-19T10:23:08;15.35;;;8.98;;
72156;SDS011;60035;52.122;5.406;2022-08-19T10:25:35;17.98;;;10.20;;
72156;SDS011;60035;52.122;5.406;2022-08-19T10:28:03;20.83;;;11.45;;
72156;SDS011;60035;52.122;5.406;2022-08-19T10:30:35;18.13;;;10.70;;
72156;SDS011;60035;52.122;5.406;2022-08-19T10:33:03;19.27;;;11.80;;
72156;SDS011;60035;52.122;5.406;2022-08-19T10:35:36;21.33;;;11.95;;
72156;SDS011;60035;52.122;5.406;2022-08-19T10:38:21;18.83;;;10.98;;
72156;SDS011;60035;52.122;5.406;2022-08-19T10:41:05;19.80;;;11.48;;
72156;SDS011;60035;52.122;5.406;2022-08-19T10:43:33;19.02;;;11.68;;
72156;SDS011;60035;52.122;5.406;2022-08-19T10:46:03;20.20;;;12.18;;
72156;SDS011;60035;52.122;5.406;2022-08-19T10:48:39;20.20;;;12.60;;
72156;SDS011;60035;52.122;5.406;2022-08-19T10:51:07;23.05;;;13.85;;
72156;SDS011;60035;52.122;5.406;2022-08-19T10:53:53;19.92;;;12.32;;
72156;SDS011;60035;52.122;5.406;2022-08-19T10:56:21;21.35;;;13.00;;
72156;SDS011;60035;52.122;5.406;2022-08-19T10:59:07;21.73;;;13.00;;
72156;SDS011;60035;52.122;5.406;2022-08-19T11:01:34;21.13;;;13.57;;
72156;SDS011;60035;52.122;5.406;2022-08-19T11:04:01;20.10;;;13.65;;
72156;SDS011;60035;52.122;5.406;2022-08-19T11:06:32;25.35;;;15.43;;
72156;SDS011;60035;52.122;5.406;2022-08-19T11:08:58;27.98;;;14.65;;
72156;SDS011;60035;52.122;5.406;2022-08-19T11:11:26;23.38;;;14.50;;
72156;SDS011;60035;52.122;5.406;2022-08-19T11:13:52;26.35;;;14.57;;
72156;SDS011;60035;52.122;5.406;2022-08-19T11:16:21;24.42;;;15.50;;
72156;SDS011;60035;52.122;5.406;2022-08-19T11:18:50;25.60;;;14.52;;
72156;SDS011;60035;52.122;5.406;2022-08-19T11:21:25;22.33;;;15.10;;
72156;SDS011;60035;52.122;5.406;2022-08-19T11:23:55;24.30;;;15.20;;
72156;SDS011;60035;52.122;5.406;2022-08-19T11:26:25;24.80;;;14.75;;
72156;SDS011;60035;52.122;5.406;2022-08-19T11:28:51;25.10;;;16.30;;
72156;SDS011;60035;52.122;5.406;2022-08-19T11:31:21;21.15;;;13.93;;
72156;SDS011;60035;52.122;5.406;2022-08-19T11:33:58;22.45;;;14.18;;
72156;SDS011;60035;52.122;5.406;2022-08-19T11:36:29;25.58;;;14.98;;
72156;SDS011;60035;52.122;5.406;2022-08-19T11:38:58;22.85;;;14.48;;
72156;SDS011;60035;52.122;5.406;2022-08-19T11:41:26;22.27;;;13.75;;
72156;SDS011;60035;52.122;5.406;2022-08-19T11:43:53;23.38;;;14.35;;
72156;SDS011;60035;52.122;5.406;2022-08-19T11:46:23;26.30;;;15.77;;
72156;SDS011;60035;52.122;5.406;2022-08-19T11:48:51;26.17;;;15.30;;
72156;SDS011;60035;52.122;5.406;2022-08-19T11:51:19;22.42;;;13.45;;
72156;SDS011;60035;52.122;5.406;2022-08-19T11:53:48;19.77;;;12.90;;
72156;SDS011;60035;52.122;5.406;2022-08-19T11:56:16;25.70;;;15.10;;
72156;SDS011;60035;52.122;5.406;2022-08-19T11:58:44;24.58;;;15.32;;
72156;SDS011;60035;52.122;5.406;2022-08-19T12:01:13;21.98;;;13.65;;
72156;SDS011;60035;52.122;5.406;2022-08-19T12:03:42;24.77;;;13.25;;
72156;SDS011;60035;52.122;5.406;2022-08-19T12:06:13;20.92;;;12.70;;
72156;SDS011;60035;52.122;5.406;2022-08-19T12:08:45;23.75;;;14.15;;
72156;SDS011;60035;52.122;5.406;2022-08-19T12:11:13;25.40;;;14.93;;
72156;SDS011;60035;52.122;5.406;2022-08-19T12:13:40;25.73;;;14.57;;
72156;SDS011;60035;52.122;5.406;2022-08-19T12:16:11;24.10;;;14.98;;
72156;SDS011;60035;52.122;5.406;2022-08-19T12:18:39;25.92;;;15.38;;
72156;SDS011;60035;52.122;5.406;2022-08-19T12:21:09;24.52;;;14.30;;
72156;SDS011;60035;52.122;5.406;2022-08-19T12:23:37;23.27;;;15.13;;
72156;SDS011;60035;52.122;5.406;2022-08-19T12:26:04;25.67;;;16.45;;
72156;SDS011;60035;52.122;5.406;2022-08-19T12:28:30;26.85;;;15.88;;
72156;SDS011;60035;52.122;5.406;2022-08-19T12:30:57;25.25;;;16.10;;
72156;SDS011;60035;52.122;5.406;2022-08-19T12:33:27;25.50;;;15.32;;
72156;SDS011;60035;52.122;5.406;2022-08-19T12:38:21;25.35;;;15.35;;
72156;SDS011;60035;52.122;5.406;2022-08-19T12:40:50;23.50;;;15.60;;
72156;SDS011;60035;52.122;5.406;2022-08-19T12:43:22;22.73;;;14.13;;
72156;SDS011;60035;52.122;5.406;2022-08-19T12:45:49;26.58;;;15.10;;
72156;SDS011;60035;52.122;5.406;2022-08-19T12:48:15;21.95;;;14.15;;
72156;SDS011;60035;52.122;5.406;2022-08-19T12:50:59;24.42;;;15.38;;
72156;SDS011;60035;52.122;5.406;2022-08-19T12:53:26;24.27;;;15.05;;
72156;SDS011;60035;52.122;5.406;2022-08-19T12:55:56;19.70;;;13.50;;
72156;SDS011;60035;52.122;5.406;2022-08-19T12:58:23;20.48;;;12.85;;
72156;SDS011;60035;52.122;5.406;2022-08-19T13:00:52;22.63;;;14.27;;
72156;SDS011;60035;52.122;5.406;2022-08-19T13:03:19;24.33;;;13.90;;
72156;SDS011;60035;52.122;5.406;2022-08-19T13:05:50;21.77;;;13.43;;
72156;SDS011;60035;52.122;5.406;2022-08-19T13:08:16;20.88;;;12.93;;
72156;SDS011;60035;52.122;5.406;2022-08-19T13:10:43;22.25;;;12.82;;
72156;SDS011;60035;52.122;5.406;2022-08-19T13:13:10;22.27;;;13.48;;
72156;SDS011;60035;52.122;5.406;2022-08-19T13:15:37;20.95;;;13.27;;
72156;SDS011;60035;52.122;5.406;2022-08-19T13:18:07;18.08;;;12.00;;
72156;SDS011;60035;52.122;5.406;2022-08-19T13:20:35;19.50;;;12.80;;
72156;SDS011;60035;52.122;5.406;2022-08-19T13:23:03;21.55;;;12.25;;
72156;SDS011;60035;52.122;5.406;2022-08-19T13:25:30;21.27;;;12.32;;
72156;SDS011;60035;52.122;5.406;2022-08-19T13:27:56;23.13;;;13.18;;
72156;SDS011;60035;52.122;5.406;2022-08-19T13:30:23;21.05;;;12.32;;
72156;SDS011;60035;52.122;5.406;2022-08-19T13:33:08;18.83;;;11.90;;
72156;SDS011;60035;52.122;5.406;2022-08-19T13:38:17;22.88;;;11.65;;
72156;SDS011;60035;52.122;5.406;2022-08-19T13:40:45;18.42;;;12.05;;
72156;SDS011;60035;52.122;5.406;2022-08-19T13:43:12;17.13;;;10.43;;
72156;SDS011;60035;52.122;5.406;2022-08-19T13:45:51;19.25;;;11.63;;
72156;SDS011;60035;52.122;5.406;2022-08-19T13:48:21;19.95;;;11.75;;
72156;SDS011;60035;52.122;5.406;2022-08-19T13:50:48;19.45;;;12.00;;
72156;SDS011;60035;52.122;5.406;2022-08-19T13:53:15;18.25;;;12.05;;
72156;SDS011;60035;52.122;5.406;2022-08-19T13:55:42;24.83;;;13.10;;
72156;SDS011;60035;52.122;5.406;2022-08-19T13:58:10;25.20;;;13.68;;
72156;SDS011;60035;52.122;5.406;2022-08-19T14:00:40;22.30;;;12.27;;
72156;SDS011;60035;52.122;5.406;2022-08-19T14:03:09;24.98;;;11.95;;
72156;SDS011;60035;52.122;5.406;2022-08-19T14:05:35;17.60;;;12.57;;
72156;SDS011;60035;52.122;5.406;2022-08-19T14:08:02;17.33;;;10.55;;
72156;SDS011;60035;52.122;5.406;2022-08-19T14:10:28;19.42;;;10.95;;
72156;SDS011;60035;52.122;5.406;2022-08-19T14:12:57;16.58;;;9.73;;
72156;SDS011;60035;52.122;5.406;2022-08-19T14:15:26;18.30;;;11.10;;
72156;SDS011;60035;52.122;5.406;2022-08-19T14:17:53;22.40;;;13.52;;
72156;SDS011;60035;52.122;5.406;2022-08-19T14:20:21;23.63;;;13.63;;
72156;SDS011;60035;52.122;5.406;2022-08-19T14:22:51;22.25;;;11.35;;
72156;SDS011;60035;52.122;5.406;2022-08-19T14:25:21;17.90;;;10.63;;
72156;SDS011;60035;52.122;5.406;2022-08-19T14:27:50;17.40;;;9.85;;
72156;SDS011;60035;52.122;5.406;2022-08-19T14:30:21;16.50;;;9.25;;
72156;SDS011;60035;52.122;5.406;2022-08-19T14:32:54;15.55;;;8.90;;
72156;SDS011;60035;52.122;5.406;2022-08-19T14:35:28;17.35;;;8.63;;
72156;SDS011;60035;52.122;5.406;2022-08-19T14:37:55;15.07;;;8.70;;
72156;SDS011;60035;52.122;5.406;2022-08-19T14:40:24;15.90;;;8.88;;
72156;SDS011;60035;52.122;5.406;2022-08-19T14:42:54;18.58;;;9.77;;
72156;SDS011;60035;52.122;5.406;2022-08-19T14:45:34;15.27;;;8.73;;
72156;SDS011;60035;52.122;5.406;2022-08-19T14:48:03;12.25;;;7.28;;
72156;SDS011;60035;52.122;5.406;2022-08-19T14:50:31;12.80;;;7.10;;
72156;SDS011;60035;52.122;5.406;2022-08-19T14:53:04;15.63;;;7.88;;
72156;SDS011;60035;52.122;5.406;2022-08-19T14:55:40;11.18;;;7.03;;
72156;SDS011;60035;52.122;5.406;2022-08-19T14:58:08;12.40;;;6.50;;
72156;SDS011;60035;52.122;5.406;2022-08-19T15:00:54;12.52;;;6.47;;
72156;SDS011;60035;52.122;5.406;2022-08-19T15:03:21;9.63;;;6.13;;
72156;SDS011;60035;52.122;5.406;2022-08-19T15:05:48;12.40;;;5.43;;